Latest Coastal Weather Observations for Geraldton Airport

IDW60701

Issued at 5:35 pm WST Friday 25 April 2014 (issued every 10 minutes, with the page automatically refreshed every 10 minutes)

About coastal observations | Map of coastal stations | Coastal observations for WA | Marine services | Other Formats
Station Details ID: 008315 Name: GERALDTON AIRPORT Lat: -28.80 Lon: 114.70 Height: 29.7 m
Data from the previous 72 hours. | See also: Recent months at Geraldton Airport
Date/Time
WST
Temp

°C
Wind Pressure Rain
since 9am
mm
Weather Cloud Vis
km
Sea
Height
m
Swell
Dir
 
Speed
knots
Gust
knots
hPa Trend Height
m
Period
s
Dir
25/05:30pm 20.9 S 11 14 1010.9 - 0.2 - Mostly clear 10 - - - -
25/05:00pm 21.9 SSE 10 14 1010.7 - 0.2 - Mostly clear 10 - - - -
25/04:30pm 22.2 SSE 10 13 1010.5 - 0.2 - Mostly clear 10 - - - -
25/04:00pm 21.9 SSE 11 13 1010.3 - 0.2 - Mostly clear 10 - - - -
25/03:30pm 21.8 SE 6 9 1010.8 - 0.2 - Mostly clear 10 - - - -
25/03:00pm 22.0 SSE 6 8 1010.8 F 0.2 Distant precip. Mostly cloudy 25 - - - -
25/02:30pm 20.8 SSE 6 8 1011.0 - 0.2 - Mostly clear 10 - - - -
25/02:00pm 20.8 S 7 10 1011.0 - 0.2 Showers Mostly clear 10 - - - -
25/01:30pm 20.6 S 8 11 1011.2 - 0.2 Showers Mostly clear 10 - - - -
25/01:00pm 20.1 S 6 9 1011.5 - 0.2 - Mostly clear 10 - - - -
25/12:30pm 20.3 SSW 3 5 1011.9 - 0.2 - Mostly clear 10 - - - -
25/12:00pm 20.2 NNW 1 4 1012.4 R 0.2 Recent precip. Mostly cloudy 25 - - - -
25/11:55am 20.1 NNW 3 5 1012.5 - 0.2 - Mostly clear 10 - - - -
25/11:30am 20.1 N 4 5 1012.6 - 0.2 Showers Partly cloudy 10 - - - -
25/11:00am 19.7 ENE 6 8 1012.4 - 0.2 Showers Partly cloudy 10 - - - -
25/10:54am 19.4 NE 6 9 1012.5 - 0.2 Showers Partly cloudy 10 - - - -
25/10:30am 19.2 ENE 8 11 1012.1 - 0.2 Showers Mostly clear 10 - - - -
25/10:00am 18.5 ESE 9 11 1012.2 - 0.2 Rain Mostly clear 10 - - - -
25/09:30am 18.4 E 8 9 1012.5 - 0.0 Rain Mostly clear 10 - - - -
25/09:00am 17.7 SSE 6 7 1013.3 R 12.0 Rain Mostly cloudy 18 - - - -
25/08:30am 17.5 E 4 5 1013.4 - 12.0 Rain Mostly clear 8 - - - -
25/08:00am 17.3 E 7 8 1012.9 - 12.0 Rain Mostly clear 9 - - - -
25/07:30am 17.2 SE 5 7 1012.6 - 10.8 Rain Mostly clear 6 - - - -
25/07:00am 17.2 SSE 5 7 1012.1 - 10.0 Rain Mostly clear 7 - - - -
25/06:34am 17.3 SSE 3 5 1012.0 - 9.0 Rain Mostly clear 6 - - - -
25/06:30am 17.3 SSE 3 5 1012.1 - 9.0 Rain Mostly clear 10 - - - -
25/06:00am 17.1 ESE 6 8 1010.9 R 8.8 Rain Cloudy 16 - - - -
25/05:30am 17.1 SE 6 7 1011.2 - 8.6 - Partly cloudy 10 - - - -
25/05:03am 17.2 ESE 7 9 1011.2 - 8.4 - Partly cloudy 10 - - - -
25/05:00am 17.2 SE 7 9 1011.1 - 8.4 - Partly cloudy 10 - - - -
25/04:47am 17.3 SE 5 6 1011.2 - 8.0 - Partly cloudy 10 - - - -
25/04:44am 17.3 SE 5 7 1011.3 - 8.0 - Partly cloudy 10 - - - -
25/04:30am 17.3 ESE 5 6 1011.2 - 7.8 - Partly cloudy 5 - - - -
25/04:06am 17.3 SE 5 6 1010.9 - 7.6 - Partly cloudy 8 - - - -
25/04:00am 17.3 SSE 5 8 1010.9 - 7.4 - Partly cloudy 10 - - - -
25/03:30am 17.2 ESE 7 9 1010.4 - 7.0 - Partly cloudy 7 - - - -
25/03:26am 17.2 ESE 7 9 1010.3 - 7.0 - Partly cloudy 8 - - - -
25/03:25am 17.2 ESE 7 9 1010.4 - 7.0 - Partly cloudy 8 - - - -
25/03:16am 17.2 SE 8 11 1010.3 - 6.8 - Partly cloudy 10 - - - -
25/03:00am 17.2 SE 10 12 1009.8 - 6.8 - Cloudy 6 - - - -
25/02:30am 17.4 SSE 10 13 1009.9 - 6.2 - Partly cloudy 6 - - - -
25/02:21am 17.5 SSE 11 13 1009.9 - 6.2 - Partly cloudy 8 - - - -
25/02:00am 18.1 SSE 8 11 1010.0 - 6.2 - Partly cloudy 10 - - - -
25/01:30am 18.2 SE 7 9 1010.1 - 6.0 - Partly cloudy 10 - - - -
25/01:00am 18.3 ESE 6 8 1010.2 - 6.0 - Partly cloudy 10 - - - -
25/12:30am 18.4 SE 5 6 1010.6 - 5.4 - Cloudy 10 - - - -
25/12:00am 18.3 ESE 5 5 1010.6 - 5.4 - Mostly cloudy 10 - - - -
 
Date/Time
WST
Temp

°C
Wind Pressure Rain
since 9am
mm
Weather Cloud Vis
km
Sea
Height
m
Swell
Dir
 
Speed
knots
Gust
knots
hPa Trend Height
m
Period
s
Dir
24/11:58pm 18.3 ESE 5 6 1010.7 - 5.4 - Cloudy 10 - - - -
24/11:30pm 18.5 SE 5 6 1011.3 - 5.4 - Partly cloudy 10 - - - -
24/11:00pm 18.5 S 4 5 1011.7 - 5.4 - Partly cloudy 10 - - - -
24/10:30pm 18.6 NW 1 4 1011.6 - 5.2 - Cloudy 9 - - - -
24/10:15pm 18.6 CALM 0 0 1012.0 - 5.2 - Cloudy 10 - - - -
24/10:01pm 18.5 CALM 0 3 1012.2 - 5.0 - Partly cloudy 8 - - - -
24/10:00pm 18.5 CALM 0 3 1012.2 - 5.0 - Partly cloudy 7 - - - -
24/09:33pm 18.6 CALM 0 0 1012.2 - 3.8 - Partly cloudy 8 - - - -
24/09:30pm 18.7 CALM 0 0 1012.3 - 3.8 - Partly cloudy 10 - - - -
24/09:27pm 18.6 CALM 0 0 1012.3 - 3.6 - Partly cloudy 10 - - - -
24/09:00pm 18.7 CALM 0 0 1012.2 - 3.2 - Cloudy 10 - - - -
24/08:30pm 18.6 WSW 4 5 1012.1 - 3.0 - Partly cloudy 10 - - - -
24/08:00pm 18.8 CALM 0 1 1011.9 - 3.0 - Cloudy 10 - - - -
24/07:30pm 19.0 NNW 3 5 1012.1 - 2.8 - Partly cloudy 10 - - - -
24/07:00pm 19.1 N 7 9 1011.9 - 2.6 - Partly cloudy 10 - - - -
24/06:44pm 19.4 N 5 6 1011.7 - 2.4 - Cloudy 10 - - - -
24/06:30pm 19.4 N 6 7 1011.8 - 2.2 - Partly cloudy 10 - - - -
24/06:27pm 19.3 N 5 7 1011.8 - 2.2 - Partly cloudy 10 - - - -
24/06:00pm 19.4 N 6 7 1011.2 - 2.0 - Mostly cloudy 10 - - - -
24/05:30pm 19.6 NW 5 6 1011.3 - 2.0 Rain Mostly clear 10 - - - -
24/05:00pm 19.7 W 4 5 1010.8 - 2.0 Rain Mostly clear 10 - - - -
24/04:30pm 19.6 W 7 8 1010.5 - 1.8 Rain Mostly clear 10 - - - -
24/04:00pm 20.2 W 4 6 1010.2 - 1.4 Rain Mostly clear 10 - - - -
24/03:30pm 20.8 W 7 9 1010.4 - 1.0 Rain Mostly clear 10 - - - -
24/03:00pm 21.0 W 8 10 1010.3 R 0.8 Rain Cloudy 18 - - - -
24/02:30pm 21.5 W 8 10 1010.2 - 0.4 Rain Mostly clear 10 - - - -
24/02:00pm 21.9 W 9 13 1010.1 - 0.2 Showers Mostly clear 10 - - - -
24/01:30pm 22.2 W 11 15 1010.1 - 0.0 Showers Mostly clear 10 - - - -
24/01:00pm 22.6 W 10 13 1010.0 - 0.0 Showers Mostly clear 10 - - - -
24/12:30pm 23.1 W 9 13 1010.3 - 0.0 Showers Mostly clear 10 - - - -
24/12:00pm 23.4 WNW 12 17 1010.6 R 0.0 Showers Cloudy 25 - - - -
24/11:30am 23.5 WNW 12 16 1010.6 - 0.0 - Mostly clear 10 - - - -
24/11:00am 23.6 WNW 10 14 1010.4 - 0.0 - - 10 - - - -
24/10:30am 23.3 W 6 9 1010.0 - 0.0 - - 10 - - - -
24/10:00am 23.1 NW 7 9 1010.3 - 0.0 - - 10 - - - -
24/09:30am 22.1 NNW 5 7 1010.6 - 0.0 - - 10 - - - -
24/09:00am 19.7 N 6 8 1010.6 R 0.0 Haze Cloudy 20 - - - -
24/08:30am 18.0 N 8 9 1010.6 - 0.0 - - 10 - - - -
24/08:00am 16.4 N 7 9 1010.0 - 0.0 - - 10 - - - -
24/07:30am 16.3 NNE 6 8 1010.1 - 0.0 - - 10 - - - -
24/07:00am 14.7 N 6 8 1009.8 - 0.0 - - 10 - - - -
24/06:30am 14.7 NNE 7 8 1009.6 - 0.0 - - 10 - - - -
24/06:00am 14.2 N 6 7 1009.6 S 0.0 Fine Partly cloudy 25 - - - -
24/05:30am 14.4 NNE 7 7 1009.4 - 0.0 - - 10 - - - -
24/05:00am 13.9 N 7 7 1009.3 - 0.0 - - 10 - - - -
24/04:30am 14.6 CALM 0 4 1009.0 - 0.0 - - 10 - - - -
24/04:00am 13.8 N 4 5 1009.0 - 0.0 - - 10 - - - -
24/03:30am 15.5 CALM 0 0 1008.9 - 0.0 - - 10 - - - -
24/03:00am 15.8 ENE 1 3 1009.0 - 0.0 - - 10 - - - -
24/02:30am 16.2 E 3 4 1009.4 - 0.0 - - 10 - - - -
24/02:00am 16.9 SSE 4 5 1010.0 - 0.0 - - 10 - - - -
24/01:30am 16.9 SE 5 7 1010.2 - 0.0 - - 10 - - - -
24/01:00am 18.2 SSE 6 7 1010.5 - 0.0 - - 10 - - - -
24/12:30am 19.2 SSE 7 9 1010.8 - 0.0 - - 10 - - - -
24/12:00am 20.3 S 7 9 1011.1 - 0.0 - - 10 - - - -
 
Date/Time
WST
Temp

°C
Wind Pressure Rain
since 9am
mm
Weather Cloud Vis
km
Sea
Height
m
Swell
Dir
 
Speed
knots
Gust
knots
hPa Trend Height
m
Period
s
Dir
23/11:30pm 20.5 SSE 9 11 1011.2 - 0.0 - - 10 - - - -
23/11:00pm 20.6 S 9 11 1011.6 - 0.0 - - 10 - - - -
23/10:30pm 20.7 S 9 12 1011.7 - 0.0 - - 10 - - - -
23/10:00pm 20.9 SSE 9 12 1011.8 - 0.0 - - 10 - - - -
23/09:30pm 21.1 S 10 13 1011.9 - 0.0 - - 10 - - - -
23/09:00pm 21.1 SSE 9 12 1012.0 F 0.0 Haze Mostly cloudy 20 - - - -
23/08:30pm 21.2 S 10 13 1012.2 - 0.0 - - 10 - - - -
23/08:00pm 21.2 SSE 9 13 1012.3 - 0.0 - - 10 - - - -
23/07:30pm 21.4 S 11 14 1012.4 - 0.0 - - 10 - - - -
23/07:00pm 21.4 S 9 12 1012.5 - 0.0 - - 10 - - - -
23/06:30pm 21.5 S 12 16 1012.2 - 0.0 - - 10 - - - -
23/06:00pm 21.6 S 13 18 1011.4 F 0.0 Fine Mostly cloudy 18 - - - -
23/05:30pm 21.9 S 13 18 1011.5 - 0.0 - - 10 - - - -
23/05:00pm 22.1 S 15 19 1011.4 - 0.0 - - 10 - - - -
23/04:30pm 22.5 S 15 20 1011.2 - 0.0 - - 10 - - - -
23/04:00pm 22.9 S 16 19 1011.3 - 0.0 - - 10 - - - -
23/03:30pm 23.4 S 17 21 1011.4 - 0.0 - - 10 - - - -
23/03:00pm 24.0 S 16 19 1011.4 R 0.0 Fine Mostly cloudy 25 - - - -
23/02:30pm 24.0 S 15 19 1011.6 - 0.0 Smoke Mostly cloudy 3 - - - -
23/02:00pm 23.3 S 15 19 1011.6 - 0.0 - - 10 - - - -
23/01:30pm 23.6 S 14 17 1011.7 - 0.0 Smoke Mostly cloudy 3 - - - -
23/01:09pm 23.9 S 15 18 1011.9 - 0.0 - Mostly cloudy 3 - - - -
23/01:00pm 23.7 S 14 18 1011.9 - 0.0 - - 10 - - - -
23/12:30pm 24.5 S 12 16 1012.3 - 0.0 - - 10 - - - -
23/12:00pm 24.3 S 11 15 1012.6 F 0.0 Fine Mostly cloudy 30 - - - -
23/11:30am 23.9 S 11 17 1013.1 - 0.0 - - 10 - - - -
23/11:00am 22.9 S 9 13 1013.6 - 0.0 - - 10 - - - -
23/10:30am 21.2 SSE 11 13 1013.8 - 0.0 - - 10 - - - -
23/10:00am 21.2 SSE 12 16 1014.1 - 0.0 - - 10 - - - -
23/09:30am 20.2 SSE 15 19 1014.4 - 0.0 - - 10 - - - -
23/09:00am 19.1 SSE 17 21 1014.8 F 0.0 Fine Mostly cloudy 30 - - - -
23/08:30am 17.7 SSE 14 19 1015.1 - 0.0 - - 10 - - - -
23/08:00am 16.6 SE 13 17 1015.0 - 0.0 - - 10 - - - -
23/07:30am 15.9 SE 13 17 1014.7 - 0.0 - Mostly clear 10 - - - -
23/07:00am 14.9 SSE 12 15 1014.4 - 0.0 - Mostly clear 10 - - - -
23/06:30am 14.5 SE 11 14 1014.9 - 0.0 - - 10 - - - -
23/06:00am 14.5 SE 11 13 1014.6 F 0.0 Fine Partly cloudy 30 - - - -
23/05:30am 14.8 SE 11 14 1014.7 - 0.0 - - 10 - - - -
23/05:00am 15.0 SE 10 13 1014.6 - 0.0 - - 10 - - - -
23/04:30am 15.6 SE 10 14 1014.6 - 0.0 - - 10 - - - -
23/04:00am 15.9 SE 10 13 1014.5 - 0.0 - - 10 - - - -
23/03:30am 16.2 SSE 13 16 1014.5 - 0.0 - - 10 - - - -
23/03:00am 16.3 SSE 12 16 1014.6 - 0.0 - - 10 - - - -
23/02:30am 16.7 SSE 13 18 1015.1 - 0.0 - - 10 - - - -
23/02:00am 17.2 SSE 14 18 1015.2 - 0.0 - - 10 - - - -
23/01:30am 17.2 SSE 13 17 1015.4 - 0.0 - - 10 - - - -
23/01:00am 17.3 SSE 11 13 1015.7 - 0.0 - - 10 - - - -
23/12:30am 17.5 SSE 11 14 1016.0 - 0.0 - - 10 - - - -
23/12:00am 17.6 SSE 12 15 1016.0 - 0.0 - - 10 - - - -
 
Date/Time
WST
Temp

°C
Wind Pressure Rain
since 9am
mm
Weather Cloud Vis
km
Sea
Height
m
Swell
Dir
 
Speed
knots
Gust
knots
hPa Trend Height
m
Period
s
Dir
22/11:30pm 17.5 SSE 10 12 1016.0 - 0.0 - - 10 - - - -
22/11:00pm 17.7 SE 8 11 1016.3 - 0.0 - - 10 - - - -
22/10:30pm 19.1 SSE 13 17 1016.4 - 0.0 - - 10 - - - -
22/10:00pm 19.4 SSE 13 17 1016.3 - 0.0 - - 10 - - - -
22/09:30pm 19.7 SSE 14 18 1016.1 - 0.0 - - 10 - - - -
22/09:00pm 19.9 S 14 18 1016.1 F 0.0 Fine Mostly cloudy 35 - - - -
22/08:30pm 20.2 S 14 17 1016.2 - 0.0 - - 10 - - - -
22/08:00pm 20.2 S 14 18 1016.0 - 0.0 - - 10 - - - -
22/07:30pm 20.5 S 13 18 1015.7 - 0.0 - - 10 - - - -
22/07:00pm 20.4 S 13 17 1015.5 - 0.0 - - 10 - - - -
22/06:30pm 20.7 S 15 19 1015.3 - 0.0 - - 10 - - - -
22/06:00pm 21.0 S 15 20 1015.1 F 0.0 Fine Mostly cloudy 40 - - - -

Other Formats:

Comma delimited format used in spreadsheet applications
http://www.bom.gov.au/fwo/IDW60701/IDW60701.94403.axf

JavaScript Object Notation format (JSON) in row-major order
http://www.bom.gov.au/fwo/IDW60701/IDW60701.94403.json